sensor_id;sensor_type;location;lat;lon;timestamp;P1;durP1;ratioP1;P2;durP2;ratioP2
15340;SDS011;7770;52.158;5.372;2023-04-19T00:00:31;13.80;;;12.30;;
15340;SDS011;7770;52.158;5.372;2023-04-19T00:03:18;13.23;;;11.33;;
15340;SDS011;7770;52.158;5.372;2023-04-19T00:06:05;16.83;;;11.57;;
15340;SDS011;7770;52.158;5.372;2023-04-19T00:08:52;13.60;;;10.00;;
15340;SDS011;7770;52.158;5.372;2023-04-19T00:11:39;14.53;;;12.23;;
15340;SDS011;7770;52.158;5.372;2023-04-19T00:14:25;15.13;;;11.23;;
15340;SDS011;7770;52.158;5.372;2023-04-19T00:17:11;17.23;;;13.00;;
15340;SDS011;7770;52.158;5.372;2023-04-19T00:19:57;17.83;;;12.87;;
15340;SDS011;7770;52.158;5.372;2023-04-19T00:22:43;12.47;;;11.07;;
15340;SDS011;7770;52.158;5.372;2023-04-19T00:25:29;17.70;;;13.87;;
15340;SDS011;7770;52.158;5.372;2023-04-19T00:28:16;15.03;;;12.43;;
15340;SDS011;7770;52.158;5.372;2023-04-19T00:31:02;16.57;;;13.67;;
15340;SDS011;7770;52.158;5.372;2023-04-19T00:33:48;17.80;;;13.03;;
15340;SDS011;7770;52.158;5.372;2023-04-19T00:36:34;14.77;;;12.87;;
15340;SDS011;7770;52.158;5.372;2023-04-19T00:39:20;16.13;;;13.57;;
15340;SDS011;7770;52.158;5.372;2023-04-19T00:42:06;15.77;;;13.27;;
15340;SDS011;7770;52.158;5.372;2023-04-19T00:44:52;15.37;;;13.57;;
15340;SDS011;7770;52.158;5.372;2023-04-19T00:47:38;15.23;;;13.27;;
15340;SDS011;7770;52.158;5.372;2023-04-19T00:50:24;17.80;;;13.80;;
15340;SDS011;7770;52.158;5.372;2023-04-19T00:53:11;17.03;;;13.33;;
15340;SDS011;7770;52.158;5.372;2023-04-19T00:55:57;16.63;;;13.60;;
15340;SDS011;7770;52.158;5.372;2023-04-19T00:58:46;17.23;;;14.20;;
15340;SDS011;7770;52.158;5.372;2023-04-19T01:01:33;18.37;;;14.37;;
15340;SDS011;7770;52.158;5.372;2023-04-19T01:04:19;18.47;;;15.47;;
15340;SDS011;7770;52.158;5.372;2023-04-19T01:07:07;16.07;;;13.93;;
15340;SDS011;7770;52.158;5.372;2023-04-19T01:09:53;16.27;;;13.40;;
15340;SDS011;7770;52.158;5.372;2023-04-19T01:12:39;16.27;;;13.93;;
15340;SDS011;7770;52.158;5.372;2023-04-19T01:15:26;19.40;;;14.00;;
15340;SDS011;7770;52.158;5.372;2023-04-19T01:18:12;20.73;;;13.97;;
15340;SDS011;7770;52.158;5.372;2023-04-19T01:20:58;20.23;;;14.10;;
15340;SDS011;7770;52.158;5.372;2023-04-19T01:23:44;17.43;;;14.03;;
15340;SDS011;7770;52.158;5.372;2023-04-19T01:26:30;17.00;;;12.80;;
15340;SDS011;7770;52.158;5.372;2023-04-19T01:29:16;17.07;;;12.87;;
15340;SDS011;7770;52.158;5.372;2023-04-19T01:32:03;18.57;;;14.00;;
15340;SDS011;7770;52.158;5.372;2023-04-19T01:34:49;18.90;;;15.50;;
15340;SDS011;7770;52.158;5.372;2023-04-19T01:37:36;17.73;;;14.57;;
15340;SDS011;7770;52.158;5.372;2023-04-19T01:40:23;18.33;;;14.83;;
15340;SDS011;7770;52.158;5.372;2023-04-19T01:43:11;17.87;;;15.63;;
15340;SDS011;7770;52.158;5.372;2023-04-19T01:45:58;20.57;;;15.33;;
15340;SDS011;7770;52.158;5.372;2023-04-19T01:48:44;24.57;;;17.97;;
15340;SDS011;7770;52.158;5.372;2023-04-19T01:51:30;26.37;;;21.93;;
15340;SDS011;7770;52.158;5.372;2023-04-19T01:54:17;30.47;;;22.63;;
15340;SDS011;7770;52.158;5.372;2023-04-19T01:57:03;22.97;;;19.93;;
15340;SDS011;7770;52.158;5.372;2023-04-19T01:59:49;23.80;;;18.47;;
15340;SDS011;7770;52.158;5.372;2023-04-19T02:02:36;21.90;;;18.00;;
15340;SDS011;7770;52.158;5.372;2023-04-19T02:05:22;20.67;;;14.77;;
15340;SDS011;7770;52.158;5.372;2023-04-19T02:08:08;20.30;;;17.07;;
15340;SDS011;7770;52.158;5.372;2023-04-19T02:10:54;21.70;;;16.33;;
15340;SDS011;7770;52.158;5.372;2023-04-19T02:13:41;19.50;;;16.03;;
15340;SDS011;7770;52.158;5.372;2023-04-19T02:16:27;19.80;;;16.80;;
15340;SDS011;7770;52.158;5.372;2023-04-19T02:19:13;19.63;;;12.70;;
15340;SDS011;7770;52.158;5.372;2023-04-19T02:21:59;18.77;;;15.33;;
15340;SDS011;7770;52.158;5.372;2023-04-19T02:24:45;19.20;;;15.47;;
15340;SDS011;7770;52.158;5.372;2023-04-19T02:27:33;17.90;;;14.93;;
15340;SDS011;7770;52.158;5.372;2023-04-19T02:30:19;17.00;;;15.13;;
15340;SDS011;7770;52.158;5.372;2023-04-19T02:33:05;15.27;;;11.47;;
15340;SDS011;7770;52.158;5.372;2023-04-19T02:35:52;16.97;;;14.17;;
15340;SDS011;7770;52.158;5.372;2023-04-19T02:38:37;20.07;;;13.77;;
15340;SDS011;7770;52.158;5.372;2023-04-19T02:41:23;18.13;;;15.43;;
15340;SDS011;7770;52.158;5.372;2023-04-19T02:44:10;18.53;;;13.57;;
15340;SDS011;7770;52.158;5.372;2023-04-19T02:46:56;16.00;;;13.47;;
15340;SDS011;7770;52.158;5.372;2023-04-19T02:49:42;16.80;;;13.53;;
15340;SDS011;7770;52.158;5.372;2023-04-19T02:52:28;17.23;;;14.93;;
15340;SDS011;7770;52.158;5.372;2023-04-19T02:55:14;18.90;;;15.83;;
15340;SDS011;7770;52.158;5.372;2023-04-19T02:58:00;16.83;;;11.33;;
15340;SDS011;7770;52.158;5.372;2023-04-19T03:00:46;18.87;;;14.97;;
15340;SDS011;7770;52.158;5.372;2023-04-19T03:03:32;11.63;;;10.10;;
15340;SDS011;7770;52.158;5.372;2023-04-19T03:06:18;17.43;;;14.83;;
15340;SDS011;7770;52.158;5.372;2023-04-19T03:09:04;17.77;;;15.10;;
15340;SDS011;7770;52.158;5.372;2023-04-19T03:11:50;15.60;;;14.00;;
15340;SDS011;7770;52.158;5.372;2023-04-19T03:14:37;18.93;;;14.57;;
15340;SDS011;7770;52.158;5.372;2023-04-19T03:17:23;18.37;;;14.27;;
15340;SDS011;7770;52.158;5.372;2023-04-19T03:20:09;18.30;;;14.30;;
15340;SDS011;7770;52.158;5.372;2023-04-19T03:22:56;16.33;;;13.80;;
15340;SDS011;7770;52.158;5.372;2023-04-19T03:25:42;15.83;;;13.30;;
15340;SDS011;7770;52.158;5.372;2023-04-19T03:28:28;13.83;;;10.27;;
15340;SDS011;7770;52.158;5.372;2023-04-19T03:31:14;13.20;;;11.00;;
15340;SDS011;7770;52.158;5.372;2023-04-19T03:34:00;11.57;;;9.60;;
15340;SDS011;7770;52.158;5.372;2023-04-19T03:36:46;15.70;;;11.40;;
15340;SDS011;7770;52.158;5.372;2023-04-19T03:39:32;12.50;;;9.27;;
15340;SDS011;7770;52.158;5.372;2023-04-19T03:42:18;13.73;;;11.33;;
15340;SDS011;7770;52.158;5.372;2023-04-19T03:45:04;13.93;;;11.83;;
15340;SDS011;7770;52.158;5.372;2023-04-19T03:47:50;13.43;;;10.97;;
15340;SDS011;7770;52.158;5.372;2023-04-19T03:50:36;13.57;;;11.33;;
15340;SDS011;7770;52.158;5.372;2023-04-19T03:53:22;15.30;;;12.47;;
15340;SDS011;7770;52.158;5.372;2023-04-19T03:56:08;15.00;;;11.33;;
15340;SDS011;7770;52.158;5.372;2023-04-19T03:58:54;16.93;;;12.97;;
15340;SDS011;7770;52.158;5.372;2023-04-19T04:01:40;14.03;;;11.60;;
15340;SDS011;7770;52.158;5.372;2023-04-19T04:04:26;16.07;;;12.50;;
15340;SDS011;7770;52.158;5.372;2023-04-19T04:07:12;13.63;;;12.23;;
15340;SDS011;7770;52.158;5.372;2023-04-19T04:09:58;13.50;;;11.67;;
15340;SDS011;7770;52.158;5.372;2023-04-19T04:12:44;15.20;;;11.33;;
15340;SDS011;7770;52.158;5.372;2023-04-19T04:15:30;15.20;;;11.60;;
15340;SDS011;7770;52.158;5.372;2023-04-19T04:18:16;14.83;;;10.77;;
15340;SDS011;7770;52.158;5.372;2023-04-19T04:21:02;11.57;;;8.57;;
15340;SDS011;7770;52.158;5.372;2023-04-19T04:23:49;16.83;;;11.53;;
15340;SDS011;7770;52.158;5.372;2023-04-19T04:26:35;12.97;;;11.03;;
15340;SDS011;7770;52.158;5.372;2023-04-19T04:29:23;16.93;;;11.30;;
15340;SDS011;7770;52.158;5.372;2023-04-19T04:32:10;16.07;;;12.23;;
15340;SDS011;7770;52.158;5.372;2023-04-19T04:34:57;13.17;;;10.13;;
15340;SDS011;7770;52.158;5.372;2023-04-19T04:37:43;16.37;;;11.00;;
15340;SDS011;7770;52.158;5.372;2023-04-19T04:40:30;14.23;;;11.73;;
15340;SDS011;7770;52.158;5.372;2023-04-19T04:43:16;13.80;;;11.70;;
15340;SDS011;7770;52.158;5.372;2023-04-19T04:46:06;15.27;;;11.97;;
15340;SDS011;7770;52.158;5.372;2023-04-19T04:48:52;14.27;;;12.20;;
15340;SDS011;7770;52.158;5.372;2023-04-19T04:51:38;15.07;;;11.10;;
15340;SDS011;7770;52.158;5.372;2023-04-19T04:54:24;14.80;;;11.40;;
15340;SDS011;7770;52.158;5.372;2023-04-19T04:57:10;13.30;;;11.37;;
15340;SDS011;7770;52.158;5.372;2023-04-19T04:59:56;15.33;;;11.80;;
15340;SDS011;7770;52.158;5.372;2023-04-19T05:02:42;14.23;;;12.00;;
15340;SDS011;7770;52.158;5.372;2023-04-19T05:05:28;14.83;;;12.40;;
15340;SDS011;7770;52.158;5.372;2023-04-19T05:08:14;11.83;;;9.50;;
15340;SDS011;7770;52.158;5.372;2023-04-19T05:11:00;16.03;;;12.10;;
15340;SDS011;7770;52.158;5.372;2023-04-19T05:13:46;15.97;;;12.57;;
15340;SDS011;7770;52.158;5.372;2023-04-19T05:16:32;14.40;;;11.00;;
15340;SDS011;7770;52.158;5.372;2023-04-19T05:19:18;13.77;;;11.30;;
15340;SDS011;7770;52.158;5.372;2023-04-19T05:22:04;14.03;;;10.33;;
15340;SDS011;7770;52.158;5.372;2023-04-19T05:24:50;12.93;;;10.60;;
15340;SDS011;7770;52.158;5.372;2023-04-19T05:27:36;14.23;;;10.47;;
15340;SDS011;7770;52.158;5.372;2023-04-19T05:30:22;14.47;;;11.33;;
15340;SDS011;7770;52.158;5.372;2023-04-19T05:33:08;13.40;;;10.83;;
15340;SDS011;7770;52.158;5.372;2023-04-19T05:35:54;13.17;;;11.80;;
15340;SDS011;7770;52.158;5.372;2023-04-19T05:38:40;14.63;;;11.17;;
15340;SDS011;7770;52.158;5.372;2023-04-19T05:41:26;13.20;;;11.80;;
15340;SDS011;7770;52.158;5.372;2023-04-19T05:44:12;14.33;;;11.00;;
15340;SDS011;7770;52.158;5.372;2023-04-19T05:46:58;12.27;;;9.67;;
15340;SDS011;7770;52.158;5.372;2023-04-19T05:49:44;12.93;;;10.73;;
15340;SDS011;7770;52.158;5.372;2023-04-19T05:52:30;12.37;;;10.73;;
15340;SDS011;7770;52.158;5.372;2023-04-19T05:55:17;13.13;;;10.13;;
15340;SDS011;7770;52.158;5.372;2023-04-19T05:58:03;12.43;;;10.37;;
15340;SDS011;7770;52.158;5.372;2023-04-19T06:00:50;16.00;;;9.97;;
15340;SDS011;7770;52.158;5.372;2023-04-19T06:03:36;14.43;;;10.27;;
15340;SDS011;7770;52.158;5.372;2023-04-19T06:06:23;11.77;;;8.80;;
15340;SDS011;7770;52.158;5.372;2023-04-19T06:09:09;16.57;;;10.27;;
15340;SDS011;7770;52.158;5.372;2023-04-19T06:11:57;14.93;;;9.73;;
15340;SDS011;7770;52.158;5.372;2023-04-19T06:14:43;10.07;;;8.70;;
15340;SDS011;7770;52.158;5.372;2023-04-19T06:17:29;14.77;;;10.40;;
15340;SDS011;7770;52.158;5.372;2023-04-19T06:20:15;11.50;;;9.60;;
15340;SDS011;7770;52.158;5.372;2023-04-19T06:23:01;11.60;;;9.40;;
15340;SDS011;7770;52.158;5.372;2023-04-19T06:25:47;11.60;;;9.30;;
15340;SDS011;7770;52.158;5.372;2023-04-19T06:28:33;13.40;;;8.93;;
15340;SDS011;7770;52.158;5.372;2023-04-19T06:31:19;10.77;;;8.00;;
15340;SDS011;7770;52.158;5.372;2023-04-19T06:34:05;12.53;;;9.13;;
15340;SDS011;7770;52.158;5.372;2023-04-19T06:36:51;9.77;;;8.10;;
15340;SDS011;7770;52.158;5.372;2023-04-19T06:39:37;10.53;;;7.07;;
15340;SDS011;7770;52.158;5.372;2023-04-19T06:42:23;8.77;;;7.10;;
15340;SDS011;7770;52.158;5.372;2023-04-19T06:45:10;9.53;;;7.20;;
15340;SDS011;7770;52.158;5.372;2023-04-19T06:47:56;11.53;;;7.17;;
15340;SDS011;7770;52.158;5.372;2023-04-19T06:50:42;9.43;;;7.27;;
15340;SDS011;7770;52.158;5.372;2023-04-19T06:53:28;8.43;;;7.63;;
15340;SDS011;7770;52.158;5.372;2023-04-19T06:56:14;8.97;;;6.83;;
15340;SDS011;7770;52.158;5.372;2023-04-19T06:59:00;10.63;;;6.40;;
15340;SDS011;7770;52.158;5.372;2023-04-19T07:01:46;8.87;;;6.90;;
15340;SDS011;7770;52.158;5.372;2023-04-19T07:04:32;9.00;;;6.70;;
15340;SDS011;7770;52.158;5.372;2023-04-19T07:07:18;7.03;;;5.90;;
15340;SDS011;7770;52.158;5.372;2023-04-19T07:10:05;8.03;;;5.40;;
15340;SDS011;7770;52.158;5.372;2023-04-19T07:12:52;6.10;;;5.50;;
15340;SDS011;7770;52.158;5.372;2023-04-19T07:15:38;7.30;;;4.97;;
15340;SDS011;7770;52.158;5.372;2023-04-19T07:18:24;12.93;;;5.47;;
15340;SDS011;7770;52.158;5.372;2023-04-19T07:21:10;6.27;;;5.30;;
15340;SDS011;7770;52.158;5.372;2023-04-19T07:23:57;6.10;;;5.50;;
15340;SDS011;7770;52.158;5.372;2023-04-19T07:26:43;6.23;;;5.03;;
15340;SDS011;7770;52.158;5.372;2023-04-19T07:29:29;6.30;;;5.70;;
15340;SDS011;7770;52.158;5.372;2023-04-19T07:32:15;6.43;;;5.70;;
15340;SDS011;7770;52.158;5.372;2023-04-19T07:35:01;10.43;;;5.77;;
15340;SDS011;7770;52.158;5.372;2023-04-19T07:37:47;7.60;;;5.33;;
15340;SDS011;7770;52.158;5.372;2023-04-19T07:40:33;6.30;;;4.80;;
15340;SDS011;7770;52.158;5.372;2023-04-19T07:43:19;7.70;;;5.67;;
15340;SDS011;7770;52.158;5.372;2023-04-19T07:46:09;11.20;;;5.30;;
15340;SDS011;7770;52.158;5.372;2023-04-19T07:48:57;6.07;;;5.53;;
15340;SDS011;7770;52.158;5.372;2023-04-19T07:51:43;6.07;;;5.30;;
15340;SDS011;7770;52.158;5.372;2023-04-19T07:54:29;7.10;;;5.50;;
15340;SDS011;7770;52.158;5.372;2023-04-19T07:57:16;6.97;;;5.07;;
15340;SDS011;7770;52.158;5.372;2023-04-19T08:00:02;8.53;;;5.33;;
15340;SDS011;7770;52.158;5.372;2023-04-19T08:02:49;5.73;;;4.80;;
15340;SDS011;7770;52.158;5.372;2023-04-19T08:05:35;5.27;;;4.60;;
15340;SDS011;7770;52.158;5.372;2023-04-19T08:08:21;8.30;;;5.77;;
15340;SDS011;7770;52.158;5.372;2023-04-19T08:11:07;9.63;;;4.93;;
15340;SDS011;7770;52.158;5.372;2023-04-19T08:13:53;6.13;;;5.20;;
15340;SDS011;7770;52.158;5.372;2023-04-19T08:16:39;7.07;;;4.60;;
15340;SDS011;7770;52.158;5.372;2023-04-19T08:19:25;5.43;;;4.50;;
15340;SDS011;7770;52.158;5.372;2023-04-19T08:22:11;6.03;;;4.90;;
15340;SDS011;7770;52.158;5.372;2023-04-19T08:24:57;5.90;;;5.07;;
15340;SDS011;7770;52.158;5.372;2023-04-19T08:27:43;6.00;;;5.20;;
15340;SDS011;7770;52.158;5.372;2023-04-19T08:30:29;5.17;;;4.70;;
15340;SDS011;7770;52.158;5.372;2023-04-19T08:33:16;5.07;;;3.77;;
15340;SDS011;7770;52.158;5.372;2023-04-19T08:36:02;5.27;;;4.70;;
15340;SDS011;7770;52.158;5.372;2023-04-19T08:38:48;6.37;;;4.47;;
15340;SDS011;7770;52.158;5.372;2023-04-19T08:41:34;4.50;;;4.07;;
15340;SDS011;7770;52.158;5.372;2023-04-19T08:44:21;5.80;;;3.70;;
15340;SDS011;7770;52.158;5.372;2023-04-19T08:47:08;12.50;;;4.57;;
15340;SDS011;7770;52.158;5.372;2023-04-19T08:49:55;4.70;;;4.20;;
15340;SDS011;7770;52.158;5.372;2023-04-19T08:52:46;4.53;;;3.93;;
15340;SDS011;7770;52.158;5.372;2023-04-19T08:55:33;4.53;;;3.43;;
15340;SDS011;7770;52.158;5.372;2023-04-19T08:58:20;3.47;;;3.17;;
15340;SDS011;7770;52.158;5.372;2023-04-19T09:01:06;5.53;;;2.80;;
15340;SDS011;7770;52.158;5.372;2023-04-19T09:03:53;5.63;;;3.00;;
15340;SDS011;7770;52.158;5.372;2023-04-19T09:06:39;2.47;;;2.17;;
15340;SDS011;7770;52.158;5.372;2023-04-19T09:09:26;4.07;;;3.03;;
15340;SDS011;7770;52.158;5.372;2023-04-19T09:12:15;4.07;;;2.90;;
15340;SDS011;7770;52.158;5.372;2023-04-19T09:15:02;3.13;;;2.83;;
15340;SDS011;7770;52.158;5.372;2023-04-19T09:18:02;3.60;;;2.80;;
15340;SDS011;7770;52.158;5.372;2023-04-19T09:20:51;3.30;;;3.00;;
15340;SDS011;7770;52.158;5.372;2023-04-19T09:23:45;3.10;;;2.80;;
15340;SDS011;7770;52.158;5.372;2023-04-19T09:26:32;3.37;;;2.47;;
15340;SDS011;7770;52.158;5.372;2023-04-19T09:29:19;2.87;;;2.37;;
15340;SDS011;7770;52.158;5.372;2023-04-19T09:32:05;3.73;;;3.00;;
15340;SDS011;7770;52.158;5.372;2023-04-19T09:37:42;3.37;;;3.03;;
15340;SDS011;7770;52.158;5.372;2023-04-19T09:40:42;3.77;;;2.97;;
15340;SDS011;7770;52.158;5.372;2023-04-19T09:43:28;3.43;;;3.10;;
15340;SDS011;7770;52.158;5.372;2023-04-19T09:46:34;3.97;;;3.57;;
15340;SDS011;7770;52.158;5.372;2023-04-19T09:49:22;6.97;;;4.33;;
15340;SDS011;7770;52.158;5.372;2023-04-19T09:52:09;5.67;;;3.00;;
15340;SDS011;7770;52.158;5.372;2023-04-19T09:55:00;8.20;;;3.87;;
15340;SDS011;7770;52.158;5.372;2023-04-19T09:57:48;4.03;;;3.63;;
15340;SDS011;7770;52.158;5.372;2023-04-19T10:00:36;3.53;;;3.10;;
15340;SDS011;7770;52.158;5.372;2023-04-19T10:03:23;5.77;;;3.00;;
15340;SDS011;7770;52.158;5.372;2023-04-19T10:06:15;3.30;;;2.80;;
15340;SDS011;7770;52.158;5.372;2023-04-19T10:09:02;4.23;;;3.20;;
15340;SDS011;7770;52.158;5.372;2023-04-19T10:11:51;4.10;;;2.80;;
15340;SDS011;7770;52.158;5.372;2023-04-19T10:14:38;3.73;;;3.30;;
15340;SDS011;7770;52.158;5.372;2023-04-19T10:17:24;4.10;;;2.97;;
15340;SDS011;7770;52.158;5.372;2023-04-19T10:20:13;6.83;;;3.47;;
15340;SDS011;7770;52.158;5.372;2023-04-19T10:23:07;5.10;;;3.10;;
15340;SDS011;7770;52.158;5.372;2023-04-19T10:25:54;4.67;;;2.90;;
15340;SDS011;7770;52.158;5.372;2023-04-19T10:28:42;9.07;;;2.70;;
15340;SDS011;7770;52.158;5.372;2023-04-19T10:31:28;4.13;;;3.00;;
15340;SDS011;7770;52.158;5.372;2023-04-19T10:34:18;5.47;;;2.90;;
15340;SDS011;7770;52.158;5.372;2023-04-19T10:37:26;3.97;;;2.70;;
15340;SDS011;7770;52.158;5.372;2023-04-19T10:40:12;3.03;;;2.73;;
15340;SDS011;7770;52.158;5.372;2023-04-19T10:43:42;4.63;;;2.90;;
15340;SDS011;7770;52.158;5.372;2023-04-19T10:49:16;3.40;;;2.80;;
15340;SDS011;7770;52.158;5.372;2023-04-19T10:52:07;3.00;;;2.70;;
15340;SDS011;7770;52.158;5.372;2023-04-19T10:55:14;3.53;;;2.83;;
15340;SDS011;7770;52.158;5.372;2023-04-19T10:58:01;3.20;;;2.80;;
15340;SDS011;7770;52.158;5.372;2023-04-19T11:00:49;5.20;;;2.97;;
15340;SDS011;7770;52.158;5.372;2023-04-19T11:06:30;3.10;;;2.77;;
15340;SDS011;7770;52.158;5.372;2023-04-19T11:12:21;3.30;;;3.00;;
15340;SDS011;7770;52.158;5.372;2023-04-19T11:15:07;4.87;;;3.90;;
15340;SDS011;7770;52.158;5.372;2023-04-19T11:17:54;3.57;;;3.00;;
15340;SDS011;7770;52.158;5.372;2023-04-19T11:20:43;4.83;;;3.60;;
15340;SDS011;7770;52.158;5.372;2023-04-19T11:23:29;4.10;;;3.70;;
15340;SDS011;7770;52.158;5.372;2023-04-19T11:26:15;6.10;;;3.07;;
15340;SDS011;7770;52.158;5.372;2023-04-19T11:29:01;4.07;;;3.53;;
15340;SDS011;7770;52.158;5.372;2023-04-19T11:31:47;4.10;;;3.40;;
15340;SDS011;7770;52.158;5.372;2023-04-19T11:34:37;4.80;;;3.40;;
15340;SDS011;7770;52.158;5.372;2023-04-19T11:37:30;6.50;;;3.93;;
15340;SDS011;7770;52.158;5.372;2023-04-19T11:40:19;4.27;;;3.33;;
15340;SDS011;7770;52.158;5.372;2023-04-19T11:43:06;4.30;;;3.90;;
15340;SDS011;7770;52.158;5.372;2023-04-19T11:45:52;5.43;;;3.60;;
15340;SDS011;7770;52.158;5.372;2023-04-19T11:48:49;4.20;;;3.80;;
15340;SDS011;7770;52.158;5.372;2023-04-19T11:51:40;5.63;;;3.70;;
15340;SDS011;7770;52.158;5.372;2023-04-19T11:54:27;5.30;;;3.90;;
15340;SDS011;7770;52.158;5.372;2023-04-19T11:57:13;3.90;;;3.60;;
15340;SDS011;7770;52.158;5.372;2023-04-19T12:00:06;4.17;;;3.77;;
15340;SDS011;7770;52.158;5.372;2023-04-19T12:02:57;6.27;;;3.90;;
15340;SDS011;7770;52.158;5.372;2023-04-19T12:05:51;4.67;;;4.10;;
15340;SDS011;7770;52.158;5.372;2023-04-19T12:08:41;4.40;;;3.37;;
15340;SDS011;7770;52.158;5.372;2023-04-19T12:11:42;4.30;;;3.90;;
15340;SDS011;7770;52.158;5.372;2023-04-19T12:14:34;5.83;;;4.13;;
15340;SDS011;7770;52.158;5.372;2023-04-19T12:17:20;9.83;;;4.40;;
15340;SDS011;7770;52.158;5.372;2023-04-19T12:20:06;4.37;;;3.83;;
15340;SDS011;7770;52.158;5.372;2023-04-19T12:22:53;5.40;;;4.37;;
15340;SDS011;7770;52.158;5.372;2023-04-19T12:25:39;6.80;;;4.60;;
15340;SDS011;7770;52.158;5.372;2023-04-19T12:28:25;4.40;;;3.70;;
15340;SDS011;7770;52.158;5.372;2023-04-19T12:31:11;5.00;;;4.07;;
15340;SDS011;7770;52.158;5.372;2023-04-19T12:33:57;5.03;;;4.53;;
15340;SDS011;7770;52.158;5.372;2023-04-19T12:36:43;5.87;;;4.40;;
15340;SDS011;7770;52.158;5.372;2023-04-19T12:39:29;8.60;;;4.77;;
15340;SDS011;7770;52.158;5.372;2023-04-19T12:42:16;5.97;;;4.10;;
15340;SDS011;7770;52.158;5.372;2023-04-19T12:45:01;6.47;;;4.70;;
15340;SDS011;7770;52.158;5.372;2023-04-19T12:47:48;6.63;;;4.90;;
15340;SDS011;7770;52.158;5.372;2023-04-19T12:50:34;7.50;;;4.10;;
15340;SDS011;7770;52.158;5.372;2023-04-19T12:53:20;7.63;;;4.77;;
15340;SDS011;7770;52.158;5.372;2023-04-19T12:56:08;4.40;;;3.90;;
15340;SDS011;7770;52.158;5.372;2023-04-19T12:58:56;4.43;;;3.37;;
15340;SDS011;7770;52.158;5.372;2023-04-19T13:01:42;5.47;;;3.87;;
15340;SDS011;7770;52.158;5.372;2023-04-19T13:04:28;4.40;;;4.00;;
15340;SDS011;7770;52.158;5.372;2023-04-19T13:07:14;6.00;;;4.30;;
15340;SDS011;7770;52.158;5.372;2023-04-19T13:10:00;4.83;;;4.37;;
15340;SDS011;7770;52.158;5.372;2023-04-19T13:12:47;5.93;;;4.30;;
15340;SDS011;7770;52.158;5.372;2023-04-19T13:15:33;10.27;;;4.53;;
15340;SDS011;7770;52.158;5.372;2023-04-19T13:18:19;6.73;;;4.13;;
15340;SDS011;7770;52.158;5.372;2023-04-19T13:21:06;5.17;;;4.67;;
15340;SDS011;7770;52.158;5.372;2023-04-19T13:23:52;7.23;;;4.83;;
15340;SDS011;7770;52.158;5.372;2023-04-19T13:26:38;6.33;;;4.27;;
15340;SDS011;7770;52.158;5.372;2023-04-19T13:29:25;7.43;;;5.00;;
15340;SDS011;7770;52.158;5.372;2023-04-19T13:32:11;6.50;;;4.90;;
15340;SDS011;7770;52.158;5.372;2023-04-19T13:34:57;5.47;;;4.20;;
15340;SDS011;7770;52.158;5.372;2023-04-19T13:37:43;6.50;;;4.47;;
15340;SDS011;7770;52.158;5.372;2023-04-19T13:40:31;5.43;;;4.30;;
15340;SDS011;7770;52.158;5.372;2023-04-19T13:43:17;5.90;;;4.30;;
15340;SDS011;7770;52.158;5.372;2023-04-19T13:46:03;7.17;;;4.53;;
15340;SDS011;7770;52.158;5.372;2023-04-19T13:48:50;5.73;;;4.27;;
15340;SDS011;7770;52.158;5.372;2023-04-19T13:51:36;5.27;;;4.27;;
15340;SDS011;7770;52.158;5.372;2023-04-19T13:54:22;5.07;;;4.27;;
15340;SDS011;7770;52.158;5.372;2023-04-19T13:57:08;5.17;;;4.00;;
15340;SDS011;7770;52.158;5.372;2023-04-19T13:59:54;5.47;;;4.20;;
15340;SDS011;7770;52.158;5.372;2023-04-19T14:02:40;4.83;;;4.30;;
15340;SDS011;7770;52.158;5.372;2023-04-19T14:05:27;6.77;;;4.00;;
15340;SDS011;7770;52.158;5.372;2023-04-19T14:08:13;7.40;;;4.57;;
15340;SDS011;7770;52.158;5.372;2023-04-19T14:10:59;6.00;;;4.23;;
15340;SDS011;7770;52.158;5.372;2023-04-19T14:13:45;4.20;;;3.80;;
15340;SDS011;7770;52.158;5.372;2023-04-19T14:16:32;5.30;;;4.10;;
15340;SDS011;7770;52.158;5.372;2023-04-19T14:19:18;12.30;;;4.40;;
15340;SDS011;7770;52.158;5.372;2023-04-19T14:22:04;5.10;;;4.10;;
15340;SDS011;7770;52.158;5.372;2023-04-19T14:24:50;4.47;;;4.07;;
15340;SDS011;7770;52.158;5.372;2023-04-19T14:27:37;4.50;;;3.53;;
15340;SDS011;7770;52.158;5.372;2023-04-19T14:30:23;5.97;;;3.53;;
15340;SDS011;7770;52.158;5.372;2023-04-19T14:33:10;6.13;;;3.70;;
15340;SDS011;7770;52.158;5.372;2023-04-19T14:35:56;5.80;;;3.80;;
15340;SDS011;7770;52.158;5.372;2023-04-19T14:38:42;14.57;;;3.83;;
15340;SDS011;7770;52.158;5.372;2023-04-19T14:41:28;14.70;;;5.03;;
15340;SDS011;7770;52.158;5.372;2023-04-19T14:44:14;7.67;;;4.00;;
15340;SDS011;7770;52.158;5.372;2023-04-19T14:47:00;6.80;;;3.97;;
15340;SDS011;7770;52.158;5.372;2023-04-19T14:49:46;4.70;;;3.43;;
15340;SDS011;7770;52.158;5.372;2023-04-19T14:52:32;5.67;;;4.30;;
15340;SDS011;7770;52.158;5.372;2023-04-19T14:55:19;6.03;;;4.40;;
15340;SDS011;7770;52.158;5.372;2023-04-19T14:58:05;4.83;;;4.17;;
15340;SDS011;7770;52.158;5.372;2023-04-19T15:00:51;4.10;;;3.70;;
15340;SDS011;7770;52.158;5.372;2023-04-19T15:03:38;4.30;;;3.90;;
15340;SDS011;7770;52.158;5.372;2023-04-19T15:06:24;5.37;;;4.53;;
15340;SDS011;7770;52.158;5.372;2023-04-19T15:09:11;7.70;;;4.60;;
15340;SDS011;7770;52.158;5.372;2023-04-19T15:11:58;4.30;;;3.90;;
15340;SDS011;7770;52.158;5.372;2023-04-19T15:14:44;6.97;;;4.37;;
15340;SDS011;7770;52.158;5.372;2023-04-19T15:17:30;5.17;;;4.67;;
15340;SDS011;7770;52.158;5.372;2023-04-19T15:20:16;5.97;;;4.67;;
15340;SDS011;7770;52.158;5.372;2023-04-19T15:23:02;6.40;;;4.90;;
15340;SDS011;7770;52.158;5.372;2023-04-19T15:25:48;7.03;;;4.93;;
15340;SDS011;7770;52.158;5.372;2023-04-19T15:28:34;9.77;;;5.73;;
15340;SDS011;7770;52.158;5.372;2023-04-19T15:31:20;9.73;;;5.43;;
15340;SDS011;7770;52.158;5.372;2023-04-19T15:34:06;7.70;;;5.70;;
15340;SDS011;7770;52.158;5.372;2023-04-19T15:36:52;8.70;;;5.57;;
15340;SDS011;7770;52.158;5.372;2023-04-19T15:39:38;8.10;;;6.07;;
15340;SDS011;7770;52.158;5.372;2023-04-19T15:42:24;7.13;;;6.17;;
15340;SDS011;7770;52.158;5.372;2023-04-19T15:45:10;7.10;;;6.40;;
15340;SDS011;7770;52.158;5.372;2023-04-19T15:47:56;7.20;;;6.40;;
15340;SDS011;7770;52.158;5.372;2023-04-19T15:50:42;10.33;;;6.90;;
15340;SDS011;7770;52.158;5.372;2023-04-19T15:53:28;7.43;;;6.07;;
15340;SDS011;7770;52.158;5.372;2023-04-19T15:56:15;8.17;;;6.07;;
15340;SDS011;7770;52.158;5.372;2023-04-19T15:59:01;10.00;;;6.00;;
15340;SDS011;7770;52.158;5.372;2023-04-19T16:01:47;7.83;;;6.07;;
15340;SDS011;7770;52.158;5.372;2023-04-19T16:04:33;8.83;;;5.90;;
15340;SDS011;7770;52.158;5.372;2023-04-19T16:07:20;6.37;;;5.63;;
15340;SDS011;7770;52.158;5.372;2023-04-19T16:10:06;8.63;;;6.37;;
15340;SDS011;7770;52.158;5.372;2023-04-19T16:12:53;5.00;;;4.33;;
15340;SDS011;7770;52.158;5.372;2023-04-19T16:15:39;6.83;;;5.90;;
15340;SDS011;7770;52.158;5.372;2023-04-19T16:18:29;6.43;;;5.80;;
15340;SDS011;7770;52.158;5.372;2023-04-19T16:21:15;8.33;;;4.30;;
15340;SDS011;7770;52.158;5.372;2023-04-19T16:24:01;6.67;;;5.97;;
15340;SDS011;7770;52.158;5.372;2023-04-19T16:26:47;6.67;;;5.87;;
15340;SDS011;7770;52.158;5.372;2023-04-19T16:29:33;7.13;;;5.47;;
15340;SDS011;7770;52.158;5.372;2023-04-19T16:32:19;6.37;;;5.07;;
15340;SDS011;7770;52.158;5.372;2023-04-19T16:35:05;7.10;;;5.40;;
15340;SDS011;7770;52.158;5.372;2023-04-19T16:37:52;7.00;;;5.80;;
15340;SDS011;7770;52.158;5.372;2023-04-19T16:40:38;6.23;;;5.63;;
15340;SDS011;7770;52.158;5.372;2023-04-19T16:43:24;5.90;;;5.30;;
15340;SDS011;7770;52.158;5.372;2023-04-19T16:46:10;6.27;;;4.97;;
15340;SDS011;7770;52.158;5.372;2023-04-19T16:48:56;6.57;;;5.50;;
15340;SDS011;7770;52.158;5.372;2023-04-19T16:51:43;6.37;;;4.80;;
15340;SDS011;7770;52.158;5.372;2023-04-19T16:54:30;7.80;;;5.77;;
15340;SDS011;7770;52.158;5.372;2023-04-19T16:57:16;8.43;;;5.77;;
15340;SDS011;7770;52.158;5.372;2023-04-19T17:00:03;6.90;;;5.33;;